Terminal Aerodrome Forecast
Issued by NWS

Home | Current Version | Previous Version | Graphics & Text | Print | Product List | Glossary On
Versions: 1 2 3 4 5 6 7 8 9 10 11 12 13 14 15 16 17 18 19 20
000
FTUS42 KMHX 211141
TAFPGV
TAF
KPGV 211141Z 2112/2212 24005KT 6SM -SHRA BKN020
     FM211500 24008KT P6SM VCSH BKN020
     FM211800 24008KT P6SM BKN060
     FM220300 21005KT P6SM SCT200
      AMD LTD TO CLD VIS AND WIND=

USA.gov is the U.S. government's official web portal to all federal, state and local government web resources and services.